sensor_id;sensor_type;location;lat;lon;timestamp;P1;durP1;ratioP1;P2;durP2;ratioP2
3349;SDS011;1688;51.000;13.684;2023-08-01T00:01:08;7.77;;;2.97;;
3349;SDS011;1688;51.000;13.684;2023-08-01T00:03:42;3.67;;;2.07;;
3349;SDS011;1688;51.000;13.684;2023-08-01T00:06:15;4.67;;;2.10;;
3349;SDS011;1688;51.000;13.684;2023-08-01T00:08:49;13.00;;;2.50;;
3349;SDS011;1688;51.000;13.684;2023-08-01T00:11:22;8.57;;;1.97;;
3349;SDS011;1688;51.000;13.684;2023-08-01T00:13:55;3.33;;;2.20;;
3349;SDS011;1688;51.000;13.684;2023-08-01T00:16:29;2.73;;;1.40;;
3349;SDS011;1688;51.000;13.684;2023-08-01T00:19:03;3.07;;;1.40;;
3349;SDS011;1688;51.000;13.684;2023-08-01T00:21:36;1.67;;;1.30;;
3349;SDS011;1688;51.000;13.684;2023-08-01T00:24:09;2.80;;;2.13;;
3349;SDS011;1688;51.000;13.684;2023-08-01T00:26:43;2.10;;;1.70;;
3349;SDS011;1688;51.000;13.684;2023-08-01T00:29:16;2.53;;;1.90;;
3349;SDS011;1688;51.000;13.684;2023-08-01T00:31:49;3.40;;;2.30;;
3349;SDS011;1688;51.000;13.684;2023-08-01T00:34:23;3.80;;;2.03;;
3349;SDS011;1688;51.000;13.684;2023-08-01T00:36:56;5.20;;;2.07;;
3349;SDS011;1688;51.000;13.684;2023-08-01T00:39:30;3.10;;;2.13;;
3349;SDS011;1688;51.000;13.684;2023-08-01T00:42:04;3.13;;;1.67;;
3349;SDS011;1688;51.000;13.684;2023-08-01T00:44:37;4.07;;;2.60;;
3349;SDS011;1688;51.000;13.684;2023-08-01T00:47:10;7.27;;;2.40;;
3349;SDS011;1688;51.000;13.684;2023-08-01T00:49:44;9.27;;;2.37;;
3349;SDS011;1688;51.000;13.684;2023-08-01T00:52:17;3.10;;;2.20;;
3349;SDS011;1688;51.000;13.684;2023-08-01T00:54:50;7.60;;;2.53;;
3349;SDS011;1688;51.000;13.684;2023-08-01T00:57:24;2.60;;;1.87;;
3349;SDS011;1688;51.000;13.684;2023-08-01T00:59:57;2.50;;;1.70;;
3349;SDS011;1688;51.000;13.684;2023-08-01T01:02:30;4.10;;;2.40;;
3349;SDS011;1688;51.000;13.684;2023-08-01T01:05:04;2.90;;;1.77;;
3349;SDS011;1688;51.000;13.684;2023-08-01T01:07:37;2.90;;;1.80;;
3349;SDS011;1688;51.000;13.684;2023-08-01T01:10:12;3.10;;;2.00;;
3349;SDS011;1688;51.000;13.684;2023-08-01T01:12:45;1.87;;;1.67;;
3349;SDS011;1688;51.000;13.684;2023-08-01T01:15:19;1.93;;;1.47;;
3349;SDS011;1688;51.000;13.684;2023-08-01T01:17:53;2.23;;;1.57;;
3349;SDS011;1688;51.000;13.684;2023-08-01T01:20:29;2.50;;;1.87;;
3349;SDS011;1688;51.000;13.684;2023-08-01T01:23:04;5.20;;;1.57;;
3349;SDS011;1688;51.000;13.684;2023-08-01T01:25:38;3.47;;;1.90;;
3349;SDS011;1688;51.000;13.684;2023-08-01T01:28:12;2.03;;;1.40;;
3349;SDS011;1688;51.000;13.684;2023-08-01T01:30:45;3.63;;;2.10;;
3349;SDS011;1688;51.000;13.684;2023-08-01T01:33:19;3.27;;;1.97;;
3349;SDS011;1688;51.000;13.684;2023-08-01T01:35:53;1.97;;;1.80;;
3349;SDS011;1688;51.000;13.684;2023-08-01T01:38:27;1.80;;;1.57;;
3349;SDS011;1688;51.000;13.684;2023-08-01T01:41:00;2.40;;;2.00;;
3349;SDS011;1688;51.000;13.684;2023-08-01T01:43:33;4.83;;;1.93;;
3349;SDS011;1688;51.000;13.684;2023-08-01T01:46:07;2.60;;;1.70;;
3349;SDS011;1688;51.000;13.684;2023-08-01T01:48:40;2.80;;;2.17;;
3349;SDS011;1688;51.000;13.684;2023-08-01T01:51:14;2.83;;;1.90;;
3349;SDS011;1688;51.000;13.684;2023-08-01T01:53:47;3.37;;;1.97;;
3349;SDS011;1688;51.000;13.684;2023-08-01T01:56:21;3.47;;;1.80;;
3349;SDS011;1688;51.000;13.684;2023-08-01T01:58:54;3.90;;;2.33;;
3349;SDS011;1688;51.000;13.684;2023-08-01T02:01:27;2.77;;;1.83;;
3349;SDS011;1688;51.000;13.684;2023-08-01T02:04:00;2.37;;;1.70;;
3349;SDS011;1688;51.000;13.684;2023-08-01T02:06:34;2.40;;;1.67;;
3349;SDS011;1688;51.000;13.684;2023-08-01T02:09:08;2.87;;;1.63;;
3349;SDS011;1688;51.000;13.684;2023-08-01T02:11:41;4.00;;;2.17;;
3349;SDS011;1688;51.000;13.684;2023-08-01T02:14:14;4.37;;;2.50;;
3349;SDS011;1688;51.000;13.684;2023-08-01T02:16:48;4.40;;;2.20;;
3349;SDS011;1688;51.000;13.684;2023-08-01T02:19:21;2.40;;;1.73;;
3349;SDS011;1688;51.000;13.684;2023-08-01T02:21:54;5.67;;;2.60;;
3349;SDS011;1688;51.000;13.684;2023-08-01T02:24:28;3.93;;;1.57;;
3349;SDS011;1688;51.000;13.684;2023-08-01T02:27:01;2.20;;;2.00;;
3349;SDS011;1688;51.000;13.684;2023-08-01T02:29:34;2.40;;;2.07;;
3349;SDS011;1688;51.000;13.684;2023-08-01T02:32:08;3.63;;;1.57;;
3349;SDS011;1688;51.000;13.684;2023-08-01T02:34:41;3.03;;;2.60;;
3349;SDS011;1688;51.000;13.684;2023-08-01T02:37:14;3.57;;;2.70;;
3349;SDS011;1688;51.000;13.684;2023-08-01T02:39:47;2.70;;;2.07;;
3349;SDS011;1688;51.000;13.684;2023-08-01T02:42:21;5.43;;;2.53;;
3349;SDS011;1688;51.000;13.684;2023-08-01T02:44:54;3.37;;;1.63;;
3349;SDS011;1688;51.000;13.684;2023-08-01T02:47:27;8.87;;;1.57;;
3349;SDS011;1688;51.000;13.684;2023-08-01T02:50:01;3.20;;;2.30;;
3349;SDS011;1688;51.000;13.684;2023-08-01T02:52:34;3.67;;;1.80;;
3349;SDS011;1688;51.000;13.684;2023-08-01T02:55:07;3.43;;;1.93;;
3349;SDS011;1688;51.000;13.684;2023-08-01T02:57:41;2.13;;;1.93;;
3349;SDS011;1688;51.000;13.684;2023-08-01T03:00:14;2.10;;;1.73;;
3349;SDS011;1688;51.000;13.684;2023-08-01T03:02:51;3.10;;;1.87;;
3349;SDS011;1688;51.000;13.684;2023-08-01T03:05:24;2.10;;;1.53;;
3349;SDS011;1688;51.000;13.684;2023-08-01T03:07:58;3.33;;;1.60;;
3349;SDS011;1688;51.000;13.684;2023-08-01T03:10:31;4.10;;;2.47;;
3349;SDS011;1688;51.000;13.684;2023-08-01T03:13:08;4.10;;;2.40;;
3349;SDS011;1688;51.000;13.684;2023-08-01T03:15:41;1.27;;;1.17;;
3349;SDS011;1688;51.000;13.684;2023-08-01T03:18:15;2.17;;;1.50;;
3349;SDS011;1688;51.000;13.684;2023-08-01T03:20:48;2.73;;;2.27;;
3349;SDS011;1688;51.000;13.684;2023-08-01T03:23:21;3.43;;;1.57;;
3349;SDS011;1688;51.000;13.684;2023-08-01T03:25:55;9.23;;;2.00;;
3349;SDS011;1688;51.000;13.684;2023-08-01T03:28:28;1.13;;;1.03;;
3349;SDS011;1688;51.000;13.684;2023-08-01T03:31:01;2.40;;;1.20;;
3349;SDS011;1688;51.000;13.684;2023-08-01T03:33:35;2.10;;;1.73;;
3349;SDS011;1688;51.000;13.684;2023-08-01T03:36:09;2.23;;;1.57;;
3349;SDS011;1688;51.000;13.684;2023-08-01T03:38:42;2.70;;;1.67;;
3349;SDS011;1688;51.000;13.684;2023-08-01T03:41:15;1.60;;;1.20;;
3349;SDS011;1688;51.000;13.684;2023-08-01T03:43:49;2.10;;;1.50;;
3349;SDS011;1688;51.000;13.684;2023-08-01T03:46:22;1.87;;;1.13;;
3349;SDS011;1688;51.000;13.684;2023-08-01T03:48:55;2.83;;;1.50;;
3349;SDS011;1688;51.000;13.684;2023-08-01T03:51:29;4.27;;;1.63;;
3349;SDS011;1688;51.000;13.684;2023-08-01T03:54:02;3.67;;;1.67;;
3349;SDS011;1688;51.000;13.684;2023-08-01T03:56:45;2.00;;;1.43;;
3349;SDS011;1688;51.000;13.684;2023-08-01T03:59:18;2.70;;;1.60;;
3349;SDS011;1688;51.000;13.684;2023-08-01T04:01:51;1.57;;;1.00;;
3349;SDS011;1688;51.000;13.684;2023-08-01T04:04:25;2.50;;;1.30;;
3349;SDS011;1688;51.000;13.684;2023-08-01T04:06:58;2.10;;;1.40;;
3349;SDS011;1688;51.000;13.684;2023-08-01T04:09:32;2.67;;;2.23;;
3349;SDS011;1688;51.000;13.684;2023-08-01T04:12:05;1.50;;;1.40;;
3349;SDS011;1688;51.000;13.684;2023-08-01T04:14:39;1.53;;;1.20;;
3349;SDS011;1688;51.000;13.684;2023-08-01T04:17:12;2.27;;;1.37;;
3349;SDS011;1688;51.000;13.684;2023-08-01T04:19:45;1.93;;;1.40;;
3349;SDS011;1688;51.000;13.684;2023-08-01T04:22:19;1.67;;;1.10;;
3349;SDS011;1688;51.000;13.684;2023-08-01T04:24:52;1.57;;;1.47;;
3349;SDS011;1688;51.000;13.684;2023-08-01T04:27:25;2.10;;;1.30;;
3349;SDS011;1688;51.000;13.684;2023-08-01T04:29:59;2.80;;;1.90;;
3349;SDS011;1688;51.000;13.684;2023-08-01T04:32:32;3.13;;;1.70;;
3349;SDS011;1688;51.000;13.684;2023-08-01T04:35:05;1.50;;;1.20;;
3349;SDS011;1688;51.000;13.684;2023-08-01T04:37:39;1.43;;;1.10;;
3349;SDS011;1688;51.000;13.684;2023-08-01T04:40:12;2.60;;;1.40;;
3349;SDS011;1688;51.000;13.684;2023-08-01T04:42:45;1.60;;;1.33;;
3349;SDS011;1688;51.000;13.684;2023-08-01T04:45:19;3.03;;;1.00;;
3349;SDS011;1688;51.000;13.684;2023-08-01T04:47:52;1.50;;;1.10;;
3349;SDS011;1688;51.000;13.684;2023-08-01T04:50:25;5.07;;;1.60;;
3349;SDS011;1688;51.000;13.684;2023-08-01T04:52:58;1.30;;;1.00;;
3349;SDS011;1688;51.000;13.684;2023-08-01T04:55:32;1.40;;;1.30;;
3349;SDS011;1688;51.000;13.684;2023-08-01T04:58:05;3.70;;;1.70;;
3349;SDS011;1688;51.000;13.684;2023-08-01T05:00:42;2.90;;;1.30;;
3349;SDS011;1688;51.000;13.684;2023-08-01T05:03:16;1.33;;;1.23;;
3349;SDS011;1688;51.000;13.684;2023-08-01T05:05:49;1.40;;;1.10;;
3349;SDS011;1688;51.000;13.684;2023-08-01T05:08:22;1.27;;;1.00;;
3349;SDS011;1688;51.000;13.684;2023-08-01T05:10:56;1.50;;;1.40;;
3349;SDS011;1688;51.000;13.684;2023-08-01T05:13:29;1.93;;;1.30;;
3349;SDS011;1688;51.000;13.684;2023-08-01T05:16:02;3.03;;;1.10;;
3349;SDS011;1688;51.000;13.684;2023-08-01T05:18:36;1.43;;;1.10;;
3349;SDS011;1688;51.000;13.684;2023-08-01T05:21:09;1.27;;;1.10;;
3349;SDS011;1688;51.000;13.684;2023-08-01T05:23:42;1.60;;;1.50;;
3349;SDS011;1688;51.000;13.684;2023-08-01T05:26:16;3.07;;;1.20;;
3349;SDS011;1688;51.000;13.684;2023-08-01T05:28:49;1.97;;;1.20;;
3349;SDS011;1688;51.000;13.684;2023-08-01T05:31:22;1.47;;;1.33;;
3349;SDS011;1688;51.000;13.684;2023-08-01T05:33:55;1.77;;;1.10;;
3349;SDS011;1688;51.000;13.684;2023-08-01T05:36:29;2.00;;;1.67;;
3349;SDS011;1688;51.000;13.684;2023-08-01T05:39:02;1.40;;;0.97;;
3349;SDS011;1688;51.000;13.684;2023-08-01T05:41:36;2.30;;;1.03;;
3349;SDS011;1688;51.000;13.684;2023-08-01T05:44:09;0.80;;;0.70;;
3349;SDS011;1688;51.000;13.684;2023-08-01T05:46:42;1.43;;;1.00;;
3349;SDS011;1688;51.000;13.684;2023-08-01T05:49:16;1.47;;;1.13;;
3349;SDS011;1688;51.000;13.684;2023-08-01T05:51:49;0.90;;;0.80;;
3349;SDS011;1688;51.000;13.684;2023-08-01T05:54:22;1.40;;;0.80;;
3349;SDS011;1688;51.000;13.684;2023-08-01T05:56:56;0.93;;;0.87;;
3349;SDS011;1688;51.000;13.684;2023-08-01T05:59:29;0.80;;;0.73;;
3349;SDS011;1688;51.000;13.684;2023-08-01T06:02:02;4.03;;;1.70;;
3349;SDS011;1688;51.000;13.684;2023-08-01T06:04:36;1.10;;;0.90;;
3349;SDS011;1688;51.000;13.684;2023-08-01T06:07:11;1.80;;;1.00;;
3349;SDS011;1688;51.000;13.684;2023-08-01T06:09:44;1.10;;;0.87;;
3349;SDS011;1688;51.000;13.684;2023-08-01T06:12:18;2.20;;;0.70;;
3349;SDS011;1688;51.000;13.684;2023-08-01T06:14:51;1.17;;;1.03;;
3349;SDS011;1688;51.000;13.684;2023-08-01T06:17:25;1.40;;;1.30;;
3349;SDS011;1688;51.000;13.684;2023-08-01T06:19:58;2.40;;;1.00;;
3349;SDS011;1688;51.000;13.684;2023-08-01T06:22:31;0.93;;;0.90;;
3349;SDS011;1688;51.000;13.684;2023-08-01T06:25:05;0.70;;;0.60;;
3349;SDS011;1688;51.000;13.684;2023-08-01T06:27:38;1.00;;;0.80;;
3349;SDS011;1688;51.000;13.684;2023-08-01T06:30:11;1.10;;;1.00;;
3349;SDS011;1688;51.000;13.684;2023-08-01T06:32:44;1.73;;;1.23;;
3349;SDS011;1688;51.000;13.684;2023-08-01T06:35:18;1.17;;;0.73;;
3349;SDS011;1688;51.000;13.684;2023-08-01T06:37:51;1.23;;;1.13;;
3349;SDS011;1688;51.000;13.684;2023-08-01T06:40:25;1.90;;;1.10;;
3349;SDS011;1688;51.000;13.684;2023-08-01T06:42:58;3.43;;;0.83;;
3349;SDS011;1688;51.000;13.684;2023-08-01T06:45:31;2.50;;;1.00;;
3349;SDS011;1688;51.000;13.684;2023-08-01T06:48:04;0.80;;;0.80;;
3349;SDS011;1688;51.000;13.684;2023-08-01T06:50:38;4.40;;;1.00;;
3349;SDS011;1688;51.000;13.684;2023-08-01T06:53:11;1.10;;;1.00;;
3349;SDS011;1688;51.000;13.684;2023-08-01T06:55:44;1.43;;;1.13;;
3349;SDS011;1688;51.000;13.684;2023-08-01T06:58:18;1.00;;;0.90;;
3349;SDS011;1688;51.000;13.684;2023-08-01T07:00:51;4.83;;;0.93;;
3349;SDS011;1688;51.000;13.684;2023-08-01T07:03:24;1.17;;;0.90;;
3349;SDS011;1688;51.000;13.684;2023-08-01T07:05:58;1.60;;;1.00;;
3349;SDS011;1688;51.000;13.684;2023-08-01T07:08:31;2.90;;;1.23;;
3349;SDS011;1688;51.000;13.684;2023-08-01T07:11:04;0.90;;;0.70;;
3349;SDS011;1688;51.000;13.684;2023-08-01T07:13:37;3.23;;;1.50;;
3349;SDS011;1688;51.000;13.684;2023-08-01T07:16:11;0.93;;;0.80;;
3349;SDS011;1688;51.000;13.684;2023-08-01T07:18:44;1.40;;;0.90;;
3349;SDS011;1688;51.000;13.684;2023-08-01T07:21:17;2.10;;;0.97;;
3349;SDS011;1688;51.000;13.684;2023-08-01T07:23:51;0.97;;;0.90;;
3349;SDS011;1688;51.000;13.684;2023-08-01T07:26:24;0.80;;;0.67;;
3349;SDS011;1688;51.000;13.684;2023-08-01T07:28:57;1.17;;;1.00;;
3349;SDS011;1688;51.000;13.684;2023-08-01T07:31:30;1.33;;;1.23;;
3349;SDS011;1688;51.000;13.684;2023-08-01T07:34:04;1.60;;;1.17;;
3349;SDS011;1688;51.000;13.684;2023-08-01T07:36:37;1.00;;;0.90;;
3349;SDS011;1688;51.000;13.684;2023-08-01T07:39:11;1.20;;;1.10;;
3349;SDS011;1688;51.000;13.684;2023-08-01T07:41:44;1.00;;;0.80;;
3349;SDS011;1688;51.000;13.684;2023-08-01T07:44:17;0.87;;;0.70;;
3349;SDS011;1688;51.000;13.684;2023-08-01T07:46:50;1.80;;;1.17;;
3349;SDS011;1688;51.000;13.684;2023-08-01T07:49:24;1.47;;;1.37;;
3349;SDS011;1688;51.000;13.684;2023-08-01T07:51:57;0.87;;;0.87;;
3349;SDS011;1688;51.000;13.684;2023-08-01T07:54:30;2.30;;;1.10;;
3349;SDS011;1688;51.000;13.684;2023-08-01T07:57:04;1.20;;;0.90;;
3349;SDS011;1688;51.000;13.684;2023-08-01T07:59:37;1.57;;;1.33;;
3349;SDS011;1688;51.000;13.684;2023-08-01T08:02:11;2.40;;;2.20;;
3349;SDS011;1688;51.000;13.684;2023-08-01T08:04:44;1.37;;;1.00;;
3349;SDS011;1688;51.000;13.684;2023-08-01T08:07:17;3.13;;;1.20;;
3349;SDS011;1688;51.000;13.684;2023-08-01T08:09:51;1.10;;;1.00;;
3349;SDS011;1688;51.000;13.684;2023-08-01T08:12:27;1.10;;;0.87;;
3349;SDS011;1688;51.000;13.684;2023-08-01T08:15:00;1.17;;;0.97;;
3349;SDS011;1688;51.000;13.684;2023-08-01T08:17:33;1.57;;;0.90;;
3349;SDS011;1688;51.000;13.684;2023-08-01T08:20:07;1.67;;;1.00;;
3349;SDS011;1688;51.000;13.684;2023-08-01T08:22:40;1.83;;;1.00;;
3349;SDS011;1688;51.000;13.684;2023-08-01T08:25:13;1.00;;;0.80;;
3349;SDS011;1688;51.000;13.684;2023-08-01T08:27:48;0.90;;;0.70;;
3349;SDS011;1688;51.000;13.684;2023-08-01T08:30:21;0.90;;;0.60;;
3349;SDS011;1688;51.000;13.684;2023-08-01T08:32:56;0.87;;;0.73;;
3349;SDS011;1688;51.000;13.684;2023-08-01T08:35:30;0.97;;;0.60;;
3349;SDS011;1688;51.000;13.684;2023-08-01T08:38:03;0.70;;;0.60;;
3349;SDS011;1688;51.000;13.684;2023-08-01T08:40:37;1.00;;;0.80;;
3349;SDS011;1688;51.000;13.684;2023-08-01T08:43:16;1.07;;;0.80;;
3349;SDS011;1688;51.000;13.684;2023-08-01T08:45:49;1.93;;;0.70;;
3349;SDS011;1688;51.000;13.684;2023-08-01T08:48:25;2.17;;;1.07;;
3349;SDS011;1688;51.000;13.684;2023-08-01T08:50:59;1.90;;;0.80;;
3349;SDS011;1688;51.000;13.684;2023-08-01T08:53:33;0.90;;;0.80;;
3349;SDS011;1688;51.000;13.684;2023-08-01T08:56:08;0.90;;;0.67;;
3349;SDS011;1688;51.000;13.684;2023-08-01T08:58:42;0.80;;;0.70;;
3349;SDS011;1688;51.000;13.684;2023-08-01T09:01:15;0.70;;;0.60;;
3349;SDS011;1688;51.000;13.684;2023-08-01T09:03:51;1.20;;;0.70;;
3349;SDS011;1688;51.000;13.684;2023-08-01T09:06:28;0.90;;;0.63;;
3349;SDS011;1688;51.000;13.684;2023-08-01T09:09:05;1.90;;;0.70;;
3349;SDS011;1688;51.000;13.684;2023-08-01T09:11:46;4.80;;;1.20;;
3349;SDS011;1688;51.000;13.684;2023-08-01T09:14:19;0.70;;;0.60;;
3349;SDS011;1688;51.000;13.684;2023-08-01T09:16:53;0.70;;;0.50;;
3349;SDS011;1688;51.000;13.684;2023-08-01T09:19:26;0.83;;;0.77;;
3349;SDS011;1688;51.000;13.684;2023-08-01T09:22:00;3.23;;;0.80;;
3349;SDS011;1688;51.000;13.684;2023-08-01T09:24:34;1.00;;;0.90;;
3349;SDS011;1688;51.000;13.684;2023-08-01T09:27:07;0.80;;;0.63;;
3349;SDS011;1688;51.000;13.684;2023-08-01T09:29:40;1.10;;;0.83;;
3349;SDS011;1688;51.000;13.684;2023-08-01T09:32:14;2.27;;;1.00;;
3349;SDS011;1688;51.000;13.684;2023-08-01T09:34:47;1.23;;;1.13;;
3349;SDS011;1688;51.000;13.684;2023-08-01T09:37:38;0.70;;;0.70;;
3349;SDS011;1688;51.000;13.684;2023-08-01T09:40:11;2.20;;;0.60;;
3349;SDS011;1688;51.000;13.684;2023-08-01T09:42:45;0.87;;;0.80;;
3349;SDS011;1688;51.000;13.684;2023-08-01T09:45:18;1.33;;;0.90;;
3349;SDS011;1688;51.000;13.684;2023-08-01T09:47:51;1.50;;;0.80;;
3349;SDS011;1688;51.000;13.684;2023-08-01T09:50:25;1.50;;;0.60;;
3349;SDS011;1688;51.000;13.684;2023-08-01T09:53:06;0.80;;;0.67;;
3349;SDS011;1688;51.000;13.684;2023-08-01T09:55:40;0.70;;;0.63;;
3349;SDS011;1688;51.000;13.684;2023-08-01T09:58:15;1.00;;;0.70;;
3349;SDS011;1688;51.000;13.684;2023-08-01T10:00:50;1.43;;;0.60;;
3349;SDS011;1688;51.000;13.684;2023-08-01T10:03:23;3.73;;;0.60;;
3349;SDS011;1688;51.000;13.684;2023-08-01T10:05:58;1.00;;;0.90;;
3349;SDS011;1688;51.000;13.684;2023-08-01T10:08:32;1.97;;;0.90;;
3349;SDS011;1688;51.000;13.684;2023-08-01T10:11:05;0.80;;;0.77;;
3349;SDS011;1688;51.000;13.684;2023-08-01T10:13:39;0.70;;;0.60;;
3349;SDS011;1688;51.000;13.684;2023-08-01T10:16:13;1.57;;;0.70;;
3349;SDS011;1688;51.000;13.684;2023-08-01T10:18:46;0.63;;;0.47;;
3349;SDS011;1688;51.000;13.684;2023-08-01T10:21:20;0.90;;;0.70;;
3349;SDS011;1688;51.000;13.684;2023-08-01T10:23:54;0.70;;;0.60;;
3349;SDS011;1688;51.000;13.684;2023-08-01T10:26:28;1.13;;;0.87;;
3349;SDS011;1688;51.000;13.684;2023-08-01T10:29:01;0.90;;;0.70;;
3349;SDS011;1688;51.000;13.684;2023-08-01T10:31:35;2.13;;;1.07;;
3349;SDS011;1688;51.000;13.684;2023-08-01T10:34:14;0.87;;;0.60;;
3349;SDS011;1688;51.000;13.684;2023-08-01T10:36:57;1.10;;;1.00;;
3349;SDS011;1688;51.000;13.684;2023-08-01T10:39:30;1.60;;;0.97;;
3349;SDS011;1688;51.000;13.684;2023-08-01T10:42:04;1.83;;;0.70;;
3349;SDS011;1688;51.000;13.684;2023-08-01T10:44:45;1.03;;;0.67;;
3349;SDS011;1688;51.000;13.684;2023-08-01T10:47:25;1.17;;;0.70;;
3349;SDS011;1688;51.000;13.684;2023-08-01T10:49:59;1.73;;;0.90;;
3349;SDS011;1688;51.000;13.684;2023-08-01T10:52:33;1.00;;;0.60;;
3349;SDS011;1688;51.000;13.684;2023-08-01T10:55:06;1.57;;;0.90;;
3349;SDS011;1688;51.000;13.684;2023-08-01T10:57:48;1.83;;;0.80;;
3349;SDS011;1688;51.000;13.684;2023-08-01T11:00:22;1.50;;;0.90;;
3349;SDS011;1688;51.000;13.684;2023-08-01T11:02:55;1.10;;;0.90;;
3349;SDS011;1688;51.000;13.684;2023-08-01T11:05:28;0.80;;;0.63;;
3349;SDS011;1688;51.000;13.684;2023-08-01T11:08:02;1.13;;;0.67;;
3349;SDS011;1688;51.000;13.684;2023-08-01T11:10:36;1.00;;;0.80;;
3349;SDS011;1688;51.000;13.684;2023-08-01T11:13:11;2.03;;;0.90;;
3349;SDS011;1688;51.000;13.684;2023-08-01T11:15:44;0.80;;;0.67;;
3349;SDS011;1688;51.000;13.684;2023-08-01T11:18:18;1.10;;;0.70;;
3349;SDS011;1688;51.000;13.684;2023-08-01T11:20:51;1.60;;;0.60;;
3349;SDS011;1688;51.000;13.684;2023-08-01T11:23:28;1.07;;;0.60;;
3349;SDS011;1688;51.000;13.684;2023-08-01T11:26:06;0.70;;;0.63;;
3349;SDS011;1688;51.000;13.684;2023-08-01T11:28:40;1.30;;;1.03;;
3349;SDS011;1688;51.000;13.684;2023-08-01T11:31:15;0.90;;;0.60;;
3349;SDS011;1688;51.000;13.684;2023-08-01T11:33:55;1.03;;;0.60;;
3349;SDS011;1688;51.000;13.684;2023-08-01T11:36:29;1.00;;;0.70;;
3349;SDS011;1688;51.000;13.684;2023-08-01T11:39:02;0.90;;;0.80;;
3349;SDS011;1688;51.000;13.684;2023-08-01T11:41:36;3.67;;;0.77;;
3349;SDS011;1688;51.000;13.684;2023-08-01T11:44:09;0.70;;;0.60;;
3349;SDS011;1688;51.000;13.684;2023-08-01T11:46:43;0.80;;;0.70;;
3349;SDS011;1688;51.000;13.684;2023-08-01T11:49:17;0.87;;;0.70;;
3349;SDS011;1688;51.000;13.684;2023-08-01T11:51:50;1.33;;;0.80;;
3349;SDS011;1688;51.000;13.684;2023-08-01T11:54:23;2.83;;;1.23;;
3349;SDS011;1688;51.000;13.684;2023-08-01T11:57:00;0.80;;;0.70;;
3349;SDS011;1688;51.000;13.684;2023-08-01T11:59:33;2.00;;;0.70;;
3349;SDS011;1688;51.000;13.684;2023-08-01T12:02:07;2.07;;;0.97;;
3349;SDS011;1688;51.000;13.684;2023-08-01T12:04:40;1.43;;;1.13;;
3349;SDS011;1688;51.000;13.684;2023-08-01T12:07:14;0.70;;;0.67;;
3349;SDS011;1688;51.000;13.684;2023-08-01T12:09:57;1.07;;;0.80;;
3349;SDS011;1688;51.000;13.684;2023-08-01T12:12:30;1.10;;;1.00;;
3349;SDS011;1688;51.000;13.684;2023-08-01T12:15:04;0.70;;;0.60;;
3349;SDS011;1688;51.000;13.684;2023-08-01T12:17:37;0.80;;;0.60;;
3349;SDS011;1688;51.000;13.684;2023-08-01T12:20:11;1.10;;;0.80;;
3349;SDS011;1688;51.000;13.684;2023-08-01T12:22:44;3.03;;;0.90;;
3349;SDS011;1688;51.000;13.684;2023-08-01T12:25:17;16.03;;;1.23;;
3349;SDS011;1688;51.000;13.684;2023-08-01T12:27:51;1.23;;;0.60;;
3349;SDS011;1688;51.000;13.684;2023-08-01T12:30:24;10.30;;;0.97;;
3349;SDS011;1688;51.000;13.684;2023-08-01T12:32:57;1.20;;;0.83;;
3349;SDS011;1688;51.000;13.684;2023-08-01T12:35:32;1.00;;;0.83;;
3349;SDS011;1688;51.000;13.684;2023-08-01T12:38:05;0.90;;;0.60;;
3349;SDS011;1688;51.000;13.684;2023-08-01T12:40:38;0.90;;;0.60;;
3349;SDS011;1688;51.000;13.684;2023-08-01T12:43:11;0.80;;;0.50;;
3349;SDS011;1688;51.000;13.684;2023-08-01T12:45:46;1.00;;;0.63;;
3349;SDS011;1688;51.000;13.684;2023-08-01T12:48:25;0.67;;;0.60;;
3349;SDS011;1688;51.000;13.684;2023-08-01T12:50:58;1.23;;;1.13;;
3349;SDS011;1688;51.000;13.684;2023-08-01T12:53:31;1.07;;;0.97;;
3349;SDS011;1688;51.000;13.684;2023-08-01T12:56:05;1.57;;;1.00;;
3349;SDS011;1688;51.000;13.684;2023-08-01T12:58:38;0.90;;;0.90;;
3349;SDS011;1688;51.000;13.684;2023-08-01T13:01:12;15.93;;;1.20;;
3349;SDS011;1688;51.000;13.684;2023-08-01T13:03:45;1.27;;;0.97;;
3349;SDS011;1688;51.000;13.684;2023-08-01T13:06:19;0.80;;;0.80;;
3349;SDS011;1688;51.000;13.684;2023-08-01T13:08:52;1.43;;;1.30;;
3349;SDS011;1688;51.000;13.684;2023-08-01T13:11:26;1.00;;;0.80;;
3349;SDS011;1688;51.000;13.684;2023-08-01T13:13:59;1.53;;;1.03;;
3349;SDS011;1688;51.000;13.684;2023-08-01T13:16:32;1.37;;;1.10;;
3349;SDS011;1688;51.000;13.684;2023-08-01T13:19:06;0.93;;;0.73;;
3349;SDS011;1688;51.000;13.684;2023-08-01T13:21:40;1.13;;;1.00;;
3349;SDS011;1688;51.000;13.684;2023-08-01T13:24:13;1.83;;;1.10;;
3349;SDS011;1688;51.000;13.684;2023-08-01T13:26:46;1.30;;;1.03;;
3349;SDS011;1688;51.000;13.684;2023-08-01T13:29:20;4.13;;;1.53;;
3349;SDS011;1688;51.000;13.684;2023-08-01T13:31:53;2.30;;;1.50;;
3349;SDS011;1688;51.000;13.684;2023-08-01T13:34:26;1.87;;;1.00;;
3349;SDS011;1688;51.000;13.684;2023-08-01T13:37:00;1.77;;;1.37;;
3349;SDS011;1688;51.000;13.684;2023-08-01T13:39:33;0.83;;;0.80;;
3349;SDS011;1688;51.000;13.684;2023-08-01T13:42:06;1.33;;;1.00;;
3349;SDS011;1688;51.000;13.684;2023-08-01T13:44:40;2.70;;;1.70;;
3349;SDS011;1688;51.000;13.684;2023-08-01T13:47:13;1.03;;;0.93;;
3349;SDS011;1688;51.000;13.684;2023-08-01T13:49:46;3.90;;;1.73;;
3349;SDS011;1688;51.000;13.684;2023-08-01T13:52:20;1.70;;;1.13;;
3349;SDS011;1688;51.000;13.684;2023-08-01T13:54:53;2.20;;;2.00;;
3349;SDS011;1688;51.000;13.684;2023-08-01T13:57:26;1.73;;;1.40;;
3349;SDS011;1688;51.000;13.684;2023-08-01T14:00:00;1.13;;;1.03;;
3349;SDS011;1688;51.000;13.684;2023-08-01T14:02:44;2.70;;;1.67;;
3349;SDS011;1688;51.000;13.684;2023-08-01T14:05:18;4.53;;;1.73;;
3349;SDS011;1688;51.000;13.684;2023-08-01T14:07:51;2.53;;;2.00;;
3349;SDS011;1688;51.000;13.684;2023-08-01T14:10:24;3.37;;;2.00;;
3349;SDS011;1688;51.000;13.684;2023-08-01T14:12:58;2.03;;;1.73;;
3349;SDS011;1688;51.000;13.684;2023-08-01T14:15:31;2.50;;;1.53;;
3349;SDS011;1688;51.000;13.684;2023-08-01T14:18:04;2.33;;;2.03;;
3349;SDS011;1688;51.000;13.684;2023-08-01T14:20:37;2.80;;;2.20;;
3349;SDS011;1688;51.000;13.684;2023-08-01T14:23:11;2.00;;;1.80;;
3349;SDS011;1688;51.000;13.684;2023-08-01T14:25:44;3.43;;;1.90;;
3349;SDS011;1688;51.000;13.684;2023-08-01T14:28:18;3.80;;;2.60;;
3349;SDS011;1688;51.000;13.684;2023-08-01T14:30:51;3.00;;;1.70;;
3349;SDS011;1688;51.000;13.684;2023-08-01T14:33:24;2.67;;;1.57;;
3349;SDS011;1688;51.000;13.684;2023-08-01T14:35:58;2.63;;;2.30;;
3349;SDS011;1688;51.000;13.684;2023-08-01T14:38:31;3.47;;;2.00;;
3349;SDS011;1688;51.000;13.684;2023-08-01T14:41:04;2.77;;;1.93;;
3349;SDS011;1688;51.000;13.684;2023-08-01T14:43:49;2.93;;;2.43;;
3349;SDS011;1688;51.000;13.684;2023-08-01T14:46:22;3.50;;;1.90;;
3349;SDS011;1688;51.000;13.684;2023-08-01T14:48:56;2.60;;;1.70;;
3349;SDS011;1688;51.000;13.684;2023-08-01T14:51:29;2.30;;;2.10;;
3349;SDS011;1688;51.000;13.684;2023-08-01T14:54:02;6.13;;;2.20;;
3349;SDS011;1688;51.000;13.684;2023-08-01T14:56:36;2.97;;;1.93;;
3349;SDS011;1688;51.000;13.684;2023-08-01T14:59:09;3.40;;;2.17;;
3349;SDS011;1688;51.000;13.684;2023-08-01T15:01:42;2.40;;;2.17;;
3349;SDS011;1688;51.000;13.684;2023-08-01T15:04:16;4.10;;;2.00;;
3349;SDS011;1688;51.000;13.684;2023-08-01T15:06:49;3.73;;;2.13;;
3349;SDS011;1688;51.000;13.684;2023-08-01T15:09:22;9.77;;;3.00;;
3349;SDS011;1688;51.000;13.684;2023-08-01T15:11:55;4.97;;;2.93;;
3349;SDS011;1688;51.000;13.684;2023-08-01T15:14:29;3.10;;;2.80;;
3349;SDS011;1688;51.000;13.684;2023-08-01T15:17:02;4.50;;;2.90;;
3349;SDS011;1688;51.000;13.684;2023-08-01T15:19:36;2.30;;;2.00;;
3349;SDS011;1688;51.000;13.684;2023-08-01T15:22:21;2.93;;;2.27;;
3349;SDS011;1688;51.000;13.684;2023-08-01T15:24:54;4.90;;;2.60;;
3349;SDS011;1688;51.000;13.684;2023-08-01T15:27:28;2.27;;;2.07;;
3349;SDS011;1688;51.000;13.684;2023-08-01T15:30:01;1.93;;;1.50;;
3349;SDS011;1688;51.000;13.684;2023-08-01T15:32:34;5.27;;;2.47;;
3349;SDS011;1688;51.000;13.684;2023-08-01T15:35:08;1.90;;;1.70;;
3349;SDS011;1688;51.000;13.684;2023-08-01T15:37:41;2.27;;;2.07;;
3349;SDS011;1688;51.000;13.684;2023-08-01T15:40:14;3.43;;;2.50;;